Time;durP1;ratioP1;P1;durP2;ratioP2;P2;SDS_P1;SDS_P2;PMS_P1;PMS_P2;Temp;Humidity;BMP_temperature;BMP_pressure;BME280_temperature;BME280_humidity;BME280_pressure;Samples;Min_cycle;Max_cycle;Signal;HPM_P1;HPM_P2
2023/03/17 00:01:59;;;;;;;;;10.75;9.75;;;;;14.86;50.04;99967.00;5074316;28;45656;-74
2023/03/17 00:04:26;;;;;;;;;11.00;11.00;;;;;14.87;50.07;99966.03;5073681;28;47513;-75
2023/03/17 00:06:52;;;;;;;;;11.00;10.75;;;;;14.81;50.42;99965.78;5074363;28;46355;-74
2023/03/17 00:09:19;;;;;;;;;12.75;11.50;;;;;14.84;50.34;99965.50;5073899;28;45532;-74
2023/03/17 00:11:45;;;;;;;;;9.75;8.50;;;;;14.84;50.06;99976.88;5074188;28;45686;-74
2023/03/17 00:14:10;;;;;;;;;12.00;11.25;;;;;14.76;50.34;99955.72;5073807;28;46770;-73
2023/03/17 00:16:39;;;;;;;;;12.50;10.50;;;;;14.81;50.41;99966.63;5077823;28;45715;-74
2023/03/17 00:22:26;;;;;;;;;10.00;9.75;;;;;14.85;50.58;99980.31;5080225;28;45537;-75
2023/03/17 00:24:51;;;;;;;;;8.25;7.50;;;;;14.84;50.47;99989.25;5080192;28;47314;-75
2023/03/17 00:27:17;;;;;;;;;12.25;11.00;;;;;14.80;50.32;99980.78;5080189;28;46878;-73
2023/03/17 00:29:42;;;;;;;;;12.50;11.00;;;;;14.81;50.20;99981.63;5080432;28;45466;-74
2023/03/17 00:32:16;;;;;;;;;13.25;13.00;;;;;14.77;50.45;99967.09;5080185;28;45515;-75
2023/03/17 00:38:03;;;;;;;;;10.25;10.00;;;;;14.80;50.49;99986.06;5080204;28;46094;-75
2023/03/17 00:40:29;;;;;;;;;17.00;11.50;;;;;14.80;50.49;99986.06;5080395;28;45739;-73
2023/03/17 00:42:56;;;;;;;;;12.00;11.00;;;;;14.77;50.50;99975.84;5080103;28;45689;-76
2023/03/17 00:45:23;;;;;;;;;12.50;11.00;;;;;14.77;50.65;99985.53;5080434;28;46535;-74
2023/03/17 00:47:52;;;;;;;;;12.25;12.00;;;;;14.72;50.20;99980.72;5080306;28;45994;-75
2023/03/17 00:50:27;;;;;;;;;13.00;12.00;;;;;14.74;50.68;99986.66;5060664;28;45600;-74
2023/03/17 00:52:55;;;;;;;;;12.25;11.50;;;;;14.75;50.48;99983.06;5078459;28;45881;-73
2023/03/17 00:55:21;;;;;;;;;11.75;11.00;;;;;14.77;50.57;99982.91;5080048;28;46359;-75
2023/03/17 00:57:48;;;;;;;;;13.00;10.25;;;;;14.72;50.26;99966.72;5080271;28;46199;-76
2023/03/17 01:00:23;;;;;;;;;11.25;9.75;;;;;14.78;50.73;99976.66;5079659;28;45794;-74
2023/03/17 01:02:52;;;;;;;;;14.25;13.00;;;;;14.79;50.61;99976.50;5080383;28;45600;-75
2023/03/17 01:08:40;;;;;;;;;12.25;11.00;;;;;14.75;50.51;99979.59;5079913;28;45803;-75
2023/03/17 01:11:11;;;;;;;;;11.00;9.50;;;;;14.64;50.46;99967.47;5079809;28;46027;-74
2023/03/17 01:13:37;;;;;;;;;10.25;10.00;;;;;14.72;50.84;99982.53;5079724;28;45789;-73
2023/03/17 01:16:02;;;;;;;;;10.50;10.50;;;;;14.72;50.54;99983.38;5079836;28;46555;-75
2023/03/17 01:18:27;;;;;;;;;10.50;10.50;;;;;14.71;50.57;99986.97;5080375;28;46327;-75
2023/03/17 01:20:53;;;;;;;;;13.75;10.50;;;;;14.70;50.61;99996.69;5079611;28;45667;-74
2023/03/17 01:23:18;;;;;;;;;10.50;10.00;;;;;14.69;50.53;99994.19;5079755;28;45781;-73
2023/03/17 01:25:44;;;;;;;;;9.00;9.00;;;;;14.70;50.71;99985.31;5061252;28;47514;-74
2023/03/17 01:28:14;;;;;;;;;14.00;10.00;;;;;14.66;50.83;99984.78;5077585;28;45557;-75
2023/03/17 01:30:40;;;;;;;;;10.00;10.00;;;;;14.67;50.68;99977.72;5075872;28;45707;-75
2023/03/17 01:33:08;;;;;;;;;11.00;10.50;;;;;14.71;50.70;99979.06;5076475;28;45806;-75
2023/03/17 01:38:56;;;;;;;;;9.75;9.00;;;;;14.67;50.75;99985.63;5076082;28;45757;-75
2023/03/17 01:41:21;;;;;;;;;10.50;10.00;;;;;14.65;50.83;99983.13;5076416;28;45755;-75
2023/03/17 01:43:46;;;;;;;;;10.00;10.00;;;;;14.64;50.99;99976.19;5075958;28;45569;-75
2023/03/17 01:46:19;;;;;;;;;10.50;8.50;;;;;14.60;50.66;99969.56;5076143;28;46373;-73
2023/03/17 01:49:06;;;;;;;;;9.75;9.25;;;;;14.62;50.92;99970.25;5077007;28;46064;-77
2023/03/17 01:51:53;;;;;;;;;12.75;11.50;;;;;14.62;51.04;99966.81;5058407;28;45545;-75
2023/03/17 01:54:29;;;;;;;;;7.25;7.25;;;;;14.60;50.94;99964.31;5077490;28;45644;-74
2023/03/17 01:57:00;;;;;;;;;10.00;9.00;;;;;14.59;50.66;99962.63;5075737;28;47852;-75
2023/03/17 01:59:30;;;;;;;;;9.75;9.25;;;;;14.57;50.50;99950.59;5075853;28;45660;-74
2023/03/17 02:02:02;;;;;;;;;8.50;6.50;;;;;14.57;50.61;99954.06;5075950;28;45505;-74
2023/03/17 02:04:28;;;;;;;;;10.25;9.75;;;;;14.57;50.80;99967.25;5075953;28;45627;-75
2023/03/17 02:06:55;;;;;;;;;8.00;7.25;;;;;14.52;50.91;99956.31;5075257;28;47642;-74
2023/03/17 02:09:21;;;;;;;;;8.75;8.50;;;;;14.55;50.58;99958.66;5075613;28;47038;-75
2023/03/17 02:11:46;;;;;;;;;9.75;8.25;;;;;14.54;50.58;99951.72;5075723;28;45667;-75
2023/03/17 02:14:12;;;;;;;;;7.00;7.00;;;;;14.51;50.86;99954.66;5075653;28;45585;-75
2023/03/17 02:16:37;;;;;;;;;8.25;7.75;;;;;14.55;50.99;99965.72;5075889;28;46144;-74
2023/03/17 02:19:03;;;;;;;;;12.00;11.75;;;;;14.53;50.83;99972.94;5077347;28;45547;-75
2023/03/17 02:24:59;;;;;;;;;8.25;7.75;;;;;14.52;51.07;99969.47;5076097;28;46087;-75
2023/03/17 02:27:40;;;;;;;;;11.25;9.00;;;;;14.44;50.77;99948.34;5075587;28;45548;-75
2023/03/17 02:30:08;;;;;;;;;10.50;9.00;;;;;14.47;51.01;99958.56;5074966;28;47104;-73
2023/03/17 02:32:35;;;;;;;;;9.75;8.50;;;;;14.51;50.77;99953.84;5075286;28;45827;-74
2023/03/17 02:35:00;;;;;;;;;8.75;6.75;;;;;14.50;50.83;99955.66;5075275;28;45731;-73
2023/03/17 02:37:26;;;;;;;;;6.25;6.25;;;;;14.49;50.87;99951.34;5075313;28;46400;-74
2023/03/17 02:39:52;;;;;;;;;10.25;10.00;;;;;14.49;50.99;99950.50;5074545;28;46926;-74
2023/03/17 02:42:18;;;;;;;;;9.25;8.50;;;;;14.43;51.00;99943.19;5074983;28;45735;-75
2023/03/17 02:44:44;;;;;;;;;10.00;9.25;;;;;14.43;51.08;99946.66;5075092;28;45800;-73
2023/03/17 02:47:10;;;;;;;;;8.00;8.00;;;;;14.46;51.15;99946.38;5074117;28;46623;-74
2023/03/17 02:49:37;;;;;;;;;11.50;10.00;;;;;14.47;50.91;99952.47;5075117;28;47007;-75
2023/03/17 02:52:03;;;;;;;;;9.00;8.50;;;;;14.45;50.97;99949.16;5063144;28;45735;-74
2023/03/17 02:54:29;;;;;;;;;9.25;8.25;;;;;14.45;50.92;99947.34;5036776;28;45869;-76
2023/03/17 02:56:54;;;;;;;;;9.50;8.25;;;;;14.45;51.01;99944.72;5036625;28;46422;-74
2023/03/17 02:59:20;;;;;;;;;8.00;6.50;;;;;14.42;51.17;99929.19;5054345;28;47107;-74
2023/03/17 03:01:47;;;;;;;;;8.50;8.50;;;;;14.44;51.01;99931.69;5054560;28;45586;-75
2023/03/17 03:04:12;;;;;;;;;9.75;9.25;;;;;14.42;51.09;99920.44;5054937;28;45684;-74
2023/03/17 03:10:01;;;;;;;;;8.75;8.75;;;;;14.41;51.20;99917.03;5054173;28;45853;-74
2023/03/17 03:12:26;;;;;;;;;8.25;8.00;;;;;14.39;51.17;99907.59;5054254;28;45742;-73
2023/03/17 03:14:52;;;;;;;;;9.25;9.00;;;;;14.41;51.36;99910.91;5054497;28;45513;-74
2023/03/17 03:17:17;;;;;;;;;11.00;9.75;;;;;14.36;51.10;99895.50;5054648;28;45605;-73
2023/03/17 03:19:42;;;;;;;;;9.00;7.25;;;;;14.39;51.43;99910.22;5053900;28;46811;-74
2023/03/17 03:25:30;;;;;;;;;8.00;7.25;;;;;14.38;51.30;99914.66;5054163;28;45613;-74
2023/03/17 03:27:55;;;;;;;;;9.25;9.25;;;;;14.35;51.42;99919.38;5054469;28;46758;-74
2023/03/17 03:30:20;;;;;;;;;9.25;7.75;;;;;14.28;51.42;99919.97;5054052;28;46015;-74
2023/03/17 03:32:46;;;;;;;;;13.00;10.75;;;;;14.28;51.58;99914.72;5054180;28;45778;-72
2023/03/17 03:35:11;;;;;;;;;10.00;7.25;;;;;14.23;51.58;99909.06;5054416;28;45586;-74
2023/03/17 03:40:59;;;;;;;;;9.75;9.75;;;;;14.22;51.61;99910.03;5053750;28;45555;-73
2023/03/17 03:43:24;;;;;;;;;11.25;10.00;;;;;14.26;51.82;99929.00;5053977;28;45570;-74
2023/03/17 03:45:50;;;;;;;;;9.75;9.75;;;;;14.18;51.30;99915.75;5053854;28;45824;-74
2023/03/17 03:48:16;;;;;;;;;9.50;9.50;;;;;14.23;51.66;99929.31;5054110;28;46593;-73
2023/03/17 03:50:41;;;;;;;;;9.75;8.75;;;;;14.22;51.64;99930.28;5052814;28;45552;-72
2023/03/17 03:53:07;;;;;;;;;12.00;10.25;;;;;14.13;51.53;99916.22;5053302;28;45697;-75
2023/03/17 03:55:32;;;;;;;;;9.00;9.00;;;;;14.17;51.48;99927.25;5053964;28;45635;-75
2023/03/17 03:57:57;;;;;;;;;16.25;11.25;;;;;14.15;51.88;99942.38;5054019;28;45656;-74
2023/03/17 04:00:24;;;;;;;;;11.00;9.50;;;;;14.08;51.81;99936.91;5053608;28;45747;-74
2023/03/17 04:02:50;;;;;;;;;10.75;9.50;;;;;14.10;51.93;99944.63;5053675;28;45654;-74
2023/03/17 04:05:19;;;;;;;;;11.75;11.50;;;;;14.08;51.87;99939.53;5053827;28;45628;-75
2023/03/17 04:11:07;;;;;;;;;10.00;9.00;;;;;14.06;51.62;99945.91;5054037;28;45824;-74
2023/03/17 04:13:33;;;;;;;;;5.00;5.00;;;;;13.99;51.90;99931.66;5054559;28;45760;-73
2023/03/17 04:15:58;;;;;;;;;10.25;8.75;;;;;14.06;51.80;99952.00;5053293;28;45789;-75
2023/03/17 04:18:24;;;;;;;;;9.00;6.25;;;;;14.04;51.76;99946.06;5053647;28;46503;-75
2023/03/17 04:20:50;;;;;;;;;8.50;7.00;;;;;14.07;52.00;99944.94;5053471;28;46127;-74
2023/03/17 04:26:37;;;;;;;;;8.00;8.00;;;;;14.04;51.82;99946.06;5053568;28;45575;-75
2023/03/17 04:29:02;;;;;;;;;9.25;9.25;;;;;14.05;51.87;99938.97;5053283;28;46874;-75
2023/03/17 04:31:27;;;;;;;;;10.75;9.25;;;;;14.05;52.01;99947.72;5053365;28;45990;-75
2023/03/17 04:33:54;;;;;;;;;11.25;10.00;;;;;14.06;51.98;99932.75;5052937;28;45679;-73
2023/03/17 04:36:21;;;;;;;;;10.50;9.00;;;;;14.06;51.80;99925.66;5053671;28;45671;-75
2023/03/17 04:38:47;;;;;;;;;8.00;8.00;;;;;14.01;52.45;99913.91;5034965;28;46901;-73
2023/03/17 04:41:14;;;;;;;;;9.25;8.00;;;;;14.04;52.33;99919.72;5053275;28;45602;-74
2023/03/17 04:43:40;;;;;;;;;11.00;9.00;;;;;14.03;52.34;99923.34;5052890;28;45759;-74
2023/03/17 04:46:06;;;;;;;;;11.50;9.50;;;;;14.02;52.40;99921.69;5053129;28;45670;-73
2023/03/17 04:48:31;;;;;;;;;9.00;9.00;;;;;14.01;52.24;99929.72;5053198;28;46267;-75
2023/03/17 04:50:57;;;;;;;;;9.00;7.00;;;;;13.99;52.04;99940.41;5052815;28;45974;-73
2023/03/17 04:56:44;;;;;;;;;4.75;4.75;;;;;13.91;52.75;99923.69;5053373;28;45664;-73
2023/03/17 04:59:10;;;;;;;;;9.75;8.50;;;;;13.96;52.53;99940.69;5053207;28;46292;-73
2023/03/17 05:01:35;;;;;;;;;9.00;9.00;;;;;13.91;52.28;99937.69;5052932;28;46065;-75
2023/03/17 05:04:01;;;;;;;;;8.75;8.50;;;;;13.97;52.22;99942.38;5056500;28;45582;-75
2023/03/17 05:06:26;;;;;;;;;12.00;9.75;;;;;13.98;52.35;99937.94;5056859;28;45620;-74
2023/03/17 05:12:14;;;;;;;;;10.00;9.25;;;;;13.97;52.63;99941.53;5056931;28;46073;-74
2023/03/17 05:14:40;;;;;;;;;9.25;8.75;;;;;13.94;52.88;99934.75;5057398;28;45685;-73
2023/03/17 05:17:06;;;;;;;;;8.00;8.00;;;;;13.92;52.69;99938.50;5057306;28;45903;-74
2023/03/17 05:19:31;;;;;;;;;9.50;9.00;;;;;13.88;52.71;99946.69;5055944;28;46337;-74
2023/03/17 05:21:56;;;;;;;;;10.00;7.50;;;;;13.90;52.73;99937.81;5056683;28;45521;-74
2023/03/17 05:27:43;;;;;;;;;8.50;8.50;;;;;13.89;52.68;99944.88;5056373;28;45565;-72
2023/03/17 05:30:09;;;;;;;;;8.00;7.75;;;;;13.87;52.87;99934.50;5056123;28;45694;-74
2023/03/17 05:32:35;;;;;;;;;6.25;5.75;;;;;13.89;52.55;99931.72;5055851;28;46248;-74
2023/03/17 05:35:01;;;;;;;;;9.00;8.00;;;;;13.90;52.66;99930.75;5037829;28;45668;-74
2023/03/17 05:37:26;;;;;;;;;10.00;7.25;;;;;13.92;52.69;99933.25;5056292;28;45703;-74
2023/03/17 05:39:52;;;;;;;;;9.00;8.00;;;;;13.82;52.96;99931.47;5055813;28;46546;-75
2023/03/17 05:42:18;;;;;;;;;10.00;9.00;;;;;13.87;52.74;99939.75;5055705;28;46281;-74
2023/03/17 05:44:43;;;;;;;;;10.75;8.00;;;;;13.88;52.79;99937.97;5056579;28;45433;-74
2023/03/17 05:47:09;;;;;;;;;6.25;6.00;;;;;13.84;53.00;99934.81;5056855;28;45464;-73
2023/03/17 05:49:34;;;;;;;;;9.00;7.75;;;;;13.86;52.73;99926.75;5055304;28;47699;-73
2023/03/17 05:52:00;;;;;;;;;7.00;5.25;;;;;13.85;52.71;99920.66;5044702;28;46083;-74
2023/03/17 05:57:47;;;;;;;;;9.50;8.00;;;;;13.85;52.88;99947.00;5055654;28;45552;-73
2023/03/17 06:00:15;;;;;;;;;9.50;8.00;;;;;13.84;52.73;99945.34;5055765;28;45637;-74
2023/03/17 06:02:40;;;;;;;;;8.25;5.00;;;;;13.86;53.00;99951.28;5070714;28;47271;-75
2023/03/17 06:05:07;;;;;;;;;9.00;8.00;;;;;13.81;53.09;99936.91;5055275;28;45602;-75
2023/03/17 06:07:34;;;;;;;;;6.50;5.00;;;;;13.83;53.06;99943.66;5055747;28;46085;-74
2023/03/17 06:13:22;;;;;;;;;8.25;8.00;;;;;13.73;52.95;99927.09;5055569;28;46209;-75
2023/03/17 06:15:51;;;;;;;;;8.25;6.75;;;;;13.76;52.91;99939.97;5055330;28;45615;-73
2023/03/17 06:18:18;;;;;;;;;6.25;6.00;;;;;13.76;53.18;99934.72;5056226;28;45749;-74
2023/03/17 06:20:43;;;;;;;;;5.75;5.25;;;;;13.71;53.15;99933.50;5056075;28;45503;-74
2023/03/17 06:23:09;;;;;;;;;9.50;8.00;;;;;13.72;53.36;99935.13;5055481;28;46321;-73
2023/03/17 06:25:35;;;;;;;;;10.00;10.00;;;;;13.76;53.07;99950.50;5054932;28;45746;-74
2023/03/17 06:28:02;;;;;;;;;5.75;5.00;;;;;13.77;53.30;99952.16;5055520;28;45433;-74
2023/03/17 06:30:27;;;;;;;;;7.75;6.50;;;;;13.65;53.52;99923.53;5055029;28;46544;-73
2023/03/17 06:32:53;;;;;;;;;8.00;7.00;;;;;13.70;53.55;99932.66;5054927;28;46190;-73
2023/03/17 06:35:19;;;;;;;;;6.25;6.25;;;;;13.70;53.28;99934.47;5055353;28;45887;-72
2023/03/17 06:37:44;;;;;;;;;8.00;7.75;;;;;13.69;53.63;99932.81;5055452;28;45665;-74
2023/03/17 06:43:32;;;;;;;;;8.50;8.00;;;;;13.76;53.33;99934.72;5054495;28;46443;-74
2023/03/17 06:45:58;;;;;;;;;6.00;6.00;;;;;13.71;53.29;99925.59;5054747;28;45615;-74
2023/03/17 06:48:24;;;;;;;;;7.00;6.25;;;;;13.75;53.37;99940.94;5054996;28;45576;-74
2023/03/17 06:50:49;;;;;;;;;5.75;5.75;;;;;13.77;53.54;99946.88;5054221;28;47720;-74
2023/03/17 06:53:15;;;;;;;;;6.25;5.75;;;;;13.78;53.56;99958.25;5054582;28;46132;-73
2023/03/17 06:59:03;;;;;;;;;6.00;6.00;;;;;13.78;53.25;99961.72;5054471;28;45750;-74
2023/03/17 07:01:29;;;;;;;;;9.50;8.75;;;;;13.83;53.37;99967.38;5054014;28;47421;-73
2023/03/17 07:03:55;;;;;;;;;6.75;6.25;;;;;13.87;53.49;99967.94;5054640;28;45748;-77
2023/03/17 07:06:22;;;;;;;;;6.25;6.25;;;;;13.85;53.31;99961.97;5054438;28;45666;-77
2023/03/17 07:08:48;;;;;;;;;8.25;7.00;;;;;13.91;53.67;99964.03;5053279;28;45565;-75
2023/03/17 07:11:13;;;;;;;;;9.75;8.75;;;;;13.93;53.38;99971.78;5035877;28;48434;-72
2023/03/17 07:13:40;;;;;;;;;10.25;7.75;;;;;13.91;53.25;99950.84;5053634;28;45529;-75
2023/03/17 07:16:05;;;;;;;;;6.75;4.75;;;;;13.91;53.41;99942.94;5054506;28;45476;-77
2023/03/17 07:18:32;;;;;;;;;6.25;5.00;;;;;14.01;53.41;99953.44;5055017;28;45420;-74
2023/03/17 07:21:01;;;;;;;;;5.00;5.00;;;;;14.02;53.19;99963.81;5054540;28;47157;-77
2023/03/17 07:23:28;;;;;;;;;6.75;5.50;;;;;13.83;53.50;99937.56;5054476;28;46358;-76
2023/03/17 07:29:15;;;;;;;;;6.25;5.75;;;;;14.00;53.39;99957.88;5054625;28;45714;-74
2023/03/17 07:31:42;;;;;;;;;8.25;7.75;;;;;14.10;53.01;99987.59;5053782;28;47297;-75
2023/03/17 07:34:09;;;;;;;;;5.00;4.00;;;;;14.08;52.42;99976.41;5053673;28;47411;-75
2023/03/17 07:36:35;;;;;;;;;6.00;4.25;;;;;14.14;52.42;99981.06;5035860;28;45832;-75
2023/03/17 07:39:00;;;;;;;;;9.00;7.25;;;;;14.14;52.90;99981.06;5054874;28;45976;-75
2023/03/17 07:44:48;;;;;;;;;6.00;5.50;;;;;14.24;52.17;99976.59;5054523;28;46036;-75
2023/03/17 07:47:13;;;;;;;;;5.50;5.50;;;;;14.26;52.10;99976.44;5036434;28;45678;-74
2023/03/17 07:49:39;;;;;;;;;6.00;4.50;;;;;14.30;52.21;99983.88;5054311;28;45543;-73
2023/03/17 07:52:05;;;;;;;;;5.00;4.75;;;;;14.32;52.05;99983.75;5053171;28;46329;-78
2023/03/17 07:54:31;;;;;;;;;7.25;6.00;;;;;14.36;52.17;99989.56;5053578;28;47122;-77
2023/03/17 07:56:58;;;;;;;;;5.50;5.50;;;;;14.40;52.10;99983.88;5054044;28;45773;-74
2023/03/17 07:59:23;;;;;;;;;5.50;5.00;;;;;14.42;51.59;99988.97;5035465;28;45928;-73
2023/03/17 08:01:49;;;;;;;;;6.00;5.00;;;;;14.45;51.29;99989.53;5053543;28;45644;-74
2023/03/17 08:04:14;;;;;;;;;9.50;5.25;;;;;14.47;51.42;99999.91;5053411;28;46034;-73
2023/03/17 08:06:41;;;;;;;;;7.00;6.00;;;;;14.45;51.72;99993.97;5053587;28;45658;-75
2023/03/17 08:09:09;;;;;;;;;6.00;5.25;;;;;14.53;50.98;100000.13;5054425;28;45635;-74
2023/03/17 08:14:57;;;;;;;;;7.25;6.00;;;;;14.55;50.72;99992.94;5054097;28;46014;-76
2023/03/17 08:17:25;;;;;;;;;5.00;5.00;;;;;14.54;51.07;99985.16;5053669;28;45682;-76
2023/03/17 08:19:55;;;;;;;;;10.00;7.00;;;;;14.55;50.68;99981.53;5053976;28;45393;-74
2023/03/17 08:22:21;;;;;;;;;6.50;5.75;;;;;14.63;50.33;100002.69;5053564;28;46753;-74
2023/03/17 08:24:47;;;;;;;;;5.00;4.00;;;;;14.65;50.44;99996.31;5053058;28;46499;-73
2023/03/17 08:27:15;;;;;;;;;7.00;6.00;;;;;14.67;50.42;99985.63;5053454;28;45492;-75
2023/03/17 08:29:41;;;;;;;;;11.25;10.50;;;;;14.75;49.94;99995.41;5053207;28;45559;-74
2023/03/17 08:32:07;;;;;;;;;5.00;5.00;;;;;14.78;50.15;99992.47;5053174;28;45541;-71
2023/03/17 08:34:32;;;;;;;;;5.00;5.00;;;;;14.79;50.44;99992.31;5052578;28;46041;-74
2023/03/17 08:36:59;;;;;;;;;6.00;4.75;;;;;14.84;50.11;99989.25;5052253;28;45705;-74
2023/03/17 08:39:25;;;;;;;;;5.00;5.00;;;;;14.83;49.76;99985.78;5057068;28;45721;-72
2023/03/17 08:45:13;;;;;;;;;5.50;5.00;;;;;15.00;49.68;99978.84;5056563;28;46032;-75
2023/03/17 08:47:39;;;;;;;;;5.25;3.75;;;;;14.99;49.54;99966.63;5056384;28;45743;-74
2023/03/17 08:50:08;;;;;;;;;5.75;5.25;;;;;15.08;49.35;99963.06;5056742;28;45559;-74
2023/03/17 08:52:36;;;;;;;;;2.00;2.00;;;;;15.10;49.01;99958.47;5055965;28;46420;-75
2023/03/17 08:55:02;;;;;;;;;5.50;5.50;;;;;15.08;48.99;99958.59;5056497;28;46024;-74
2023/03/17 08:57:27;;;;;;;;;5.00;4.75;;;;;15.17;49.28;99982.44;5056650;28;45610;-73
2023/03/17 08:59:53;;;;;;;;;5.00;4.00;;;;;15.20;48.80;99976.84;5056446;28;45811;-75
2023/03/17 09:02:19;;;;;;;;;4.75;4.00;;;;;15.20;48.75;99975.03;5054914;28;46564;-75
2023/03/17 09:04:45;;;;;;;;;5.50;4.25;;;;;15.25;48.51;99971.91;5056326;28;46235;-75
2023/03/17 09:07:11;;;;;;;;;5.00;5.00;;;;;15.26;48.34;99970.94;5054940;28;45652;-75
2023/03/17 09:09:37;;;;;;;;;6.00;4.00;;;;;15.31;48.58;99961.56;5056152;28;45750;-72
2023/03/17 09:15:24;;;;;;;;;4.25;4.00;;;;;15.42;48.54;99976.31;5055803;28;45793;-74
2023/03/17 09:17:49;;;;;;;;;4.50;4.25;;;;;15.46;48.12;99953.91;5056460;28;45632;-74
2023/03/17 09:20:15;;;;;;;;;6.00;5.00;;;;;15.50;48.11;99955.25;5056446;28;45902;-73
2023/03/17 09:22:40;;;;;;;;;6.75;5.00;;;;;15.62;47.83;99963.75;5056249;28;47792;-76
2023/03/17 09:25:06;;;;;;;;;5.50;5.00;;;;;15.70;47.91;99956.72;5055653;28;46145;-72
2023/03/17 09:31:10;;;;;;;;;4.75;4.00;;;;;15.88;47.63;99953.97;5056138;28;45562;-76
2023/03/17 09:33:36;;;;;;;;;5.50;4.00;;;;;15.92;47.44;99960.63;5056028;28;46538;-74
2023/03/17 09:36:02;;;;;;;;;3.25;3.25;;;;;16.02;47.45;99963.94;5056261;28;46095;-74
2023/03/17 09:38:27;;;;;;;;;2.25;2.25;;;;;16.08;47.24;99958.03;5056306;28;45591;-72
2023/03/17 09:40:56;;;;;;;;;4.00;4.00;;;;;16.10;47.14;99949.91;5056253;28;45627;-75
2023/03/17 09:43:51;;;;;;;;;5.00;4.00;;;;;16.26;46.62;99955.25;5055900;28;46438;-74
2023/03/17 09:46:37;;;;;;;;;5.00;4.50;;;;;16.33;46.50;99938.59;4974338;28;46007;-74
2023/03/17 09:49:08;;;;;;;;;2.00;1.00;;;;;16.44;46.36;99948.03;4972865;28;45576;-77
2023/03/17 09:51:34;;;;;;;;;2.00;2.00;;;;;16.54;46.43;99947.88;4980885;28;45736;-75
2023/03/17 09:54:26;;;;;;;;;2.25;2.25;;;;;16.63;46.20;99950.38;4993625;28;46731;-75
2023/03/17 09:57:00;;;;;;;;;2.00;2.00;;;;;16.74;46.63;99942.13;4982945;28;47800;-74
2023/03/17 09:59:32;;;;;;;;;2.25;2.25;;;;;16.80;46.31;99922.13;4993834;28;45584;-72
2023/03/17 10:01:58;;;;;;;;;3.50;2.50;;;;;16.90;46.26;99930.72;4993929;28;45648;-74
2023/03/17 10:04:25;;;;;;;;;4.25;4.00;;;;;17.01;46.27;99934.84;4993865;28;46304;-74
2023/03/17 10:06:56;;;;;;;;;4.50;3.50;;;;;17.13;45.78;99947.59;4993865;28;46329;-73
2023/03/17 10:09:48;;;;;;;;;3.00;3.00;;;;;17.25;46.25;99952.53;4993565;28;45641;-74
2023/03/17 10:12:32;;;;;;;;;3.50;3.00;;;;;17.36;45.38;99954.84;4993310;28;45827;-73
2023/03/17 10:15:11;;;;;;;;;3.25;3.00;;;;;17.41;45.27;99955.97;4993843;28;45749;-74
2023/03/17 10:17:41;;;;;;;;;3.75;3.00;;;;;17.56;45.13;99961.41;4993140;28;45718;-75
2023/03/17 10:20:14;;;;;;;;;2.75;2.75;;;;;17.65;45.03;99971.03;4993139;28;45739;-74
2023/03/17 10:22:51;;;;;;;;;2.00;2.00;;;;;17.71;45.12;99961.56;5015182;28;45744;-74
2023/03/17 10:25:18;;;;;;;;;4.00;3.00;;;;;17.81;44.80;99964.84;5075234;28;46441;-75
2023/03/17 10:28:08;;;;;;;;;3.25;3.25;;;;;17.87;44.11;99975.56;5075403;28;46234;-74
2023/03/17 10:30:34;;;;;;;;;2.00;2.00;;;;;17.91;44.16;99976.06;5074740;28;45528;-75
2023/03/17 10:33:03;;;;;;;;;2.00;2.00;;;;;17.95;43.51;99972.06;5075342;28;45521;-77
2023/03/17 10:35:34;;;;;;;;;6.75;3.00;;;;;18.02;43.84;99968.56;5075416;28;46535;-73
2023/03/17 10:38:00;;;;;;;;;3.25;2.00;;;;;18.07;43.63;99967.22;5074926;28;46422;-74
2023/03/17 10:40:29;;;;;;;;;2.75;2.75;;;;;18.10;43.80;99969.50;5075227;28;45628;-74
2023/03/17 10:43:02;;;;;;;;;0.75;0.75;;;;;18.07;43.16;99972.53;5075271;28;45761;-75
2023/03/17 10:45:32;;;;;;;;;2.00;1.00;;;;;18.08;43.51;99971.53;5075267;28;45670;-73
2023/03/17 10:48:00;;;;;;;;;1.75;1.00;;;;;18.09;43.42;99962.56;5075041;28;45647;-75
2023/03/17 10:50:34;;;;;;;;;0.00;0.00;;;;;18.11;43.50;99964.06;5075359;28;45549;-73
2023/03/17 10:53:26;;;;;;;;;1.00;1.00;;;;;18.15;43.40;99964.53;5074991;28;45664;-73
2023/03/17 10:55:55;;;;;;;;;2.00;2.00;;;;;18.17;43.30;99958.06;5074901;28;46774;-75
2023/03/17 10:58:35;;;;;;;;;2.25;1.50;;;;;18.16;43.56;99953.75;5075078;28;45764;-74
2023/03/17 11:01:19;;;;;;;;;2.50;1.00;;;;;18.23;43.72;99962.66;5074478;28;45636;-73
2023/03/17 11:03:45;;;;;;;;;2.75;1.75;;;;;18.15;43.69;99962.69;5074567;28;45770;-76
2023/03/17 11:06:17;;;;;;;;;1.00;1.00;;;;;18.26;43.39;99961.47;5074566;28;45689;-72
2023/03/17 11:08:48;;;;;;;;;2.00;2.00;;;;;18.28;44.06;99967.44;5075133;28;46470;-74
2023/03/17 11:11:30;;;;;;;;;3.00;2.00;;;;;18.25;43.88;99976.56;5074401;28;45564;-73
2023/03/17 11:14:04;;;;;;;;;1.50;1.50;;;;;18.23;43.76;99970.63;5074961;28;45613;-76
2023/03/17 11:16:36;;;;;;;;;2.00;2.00;;;;;18.24;43.40;99964.31;5074910;28;45720;-74
2023/03/17 11:19:04;;;;;;;;;1.00;1.00;;;;;18.22;42.74;99949.56;5074892;28;46052;-75
2023/03/17 11:21:53;;;;;;;;;1.50;1.50;;;;;18.29;42.83;99969.94;5074343;28;45607;-73
2023/03/17 11:24:35;;;;;;;;;2.00;1.25;;;;;18.26;43.15;99953.53;5074623;28;45885;-73
2023/03/17 11:30:40;;;;;;;;;3.50;2.00;;;;;18.33;43.44;99959.78;5074372;28;45686;-74
2023/03/17 11:33:28;;;;;;;;;2.75;2.00;;;;;18.35;43.16;99969.22;5074509;28;45527;-75
2023/03/17 11:36:02;;;;;;;;;1.25;1.00;;;;;18.39;43.30;99977.66;5074647;28;45589;-74
2023/03/17 11:38:36;;;;;;;;;4.00;3.00;;;;;18.37;43.75;99977.81;5074565;28;45653;-75
2023/03/17 11:41:16;;;;;;;;;3.00;2.25;;;;;18.43;43.84;99971.84;5072845;28;48422;-74
2023/03/17 11:47:30;;;;;;;;;2.50;2.50;;;;;18.54;43.85;99972.44;5074061;28;45715;-75
2023/03/17 11:50:05;;;;;;;;;2.50;2.00;;;;;18.59;43.58;99949.69;5074615;28;47337;-74
2023/03/17 11:52:56;;;;;;;;;3.00;3.00;;;;;18.66;44.05;99957.78;5074448;28;46849;-74
2023/03/17 11:55:27;;;;;;;;;2.25;2.00;;;;;18.67;43.90;99962.09;5072647;28;46317;-75
2023/03/17 11:58:01;;;;;;;;;2.50;2.00;;;;;18.70;43.72;99962.56;5074072;28;45620;-74
2023/03/17 12:00:33;;;;;;;;;3.50;3.00;;;;;18.66;43.72;99961.28;5074097;28;45735;-74
2023/03/17 12:03:21;;;;;;;;;4.50;4.00;;;;;18.73;43.62;99972.81;5074038;28;45611;-75
2023/03/17 12:05:53;;;;;;;;;2.25;1.00;;;;;18.70;43.71;99978.47;5074193;28;45741;-74
2023/03/17 12:08:32;;;;;;;;;3.25;3.00;;;;;18.69;44.09;99978.66;5073969;28;45533;-77
2023/03/17 12:11:01;;;;;;;;;7.50;5.50;;;;;18.65;44.41;99966.75;5073685;28;46935;-75
2023/03/17 12:13:32;;;;;;;;;4.75;4.00;;;;;18.64;43.99;99992.44;5073626;28;45568;-74
2023/03/17 12:16:11;;;;;;;;;4.00;4.00;;;;;18.53;44.38;99998.13;5074278;28;45568;-73
2023/03/17 12:18:47;;;;;;;;;5.75;4.00;;;;;18.30;44.90;99968.91;5072640;28;45897;-73
2023/03/17 12:21:35;;;;;;;;;4.00;3.00;;;;;18.24;44.48;100001.44;5073550;28;46478;-73
2023/03/17 12:24:12;;;;;;;;;5.00;4.25;;;;;18.10;45.18;100003.97;5073203;28;46164;-74
2023/03/17 12:26:48;;;;;;;;;4.25;4.00;;;;;17.98;45.48;100001.72;5073383;28;45635;-75
2023/03/17 12:29:48;;;;;;;;;4.50;4.50;;;;;17.90;45.32;100001.75;5073567;28;45804;-73
2023/03/17 12:32:28;;;;;;;;;4.00;4.00;;;;;17.81;45.64;100000.13;5073392;28;46306;-74
2023/03/17 12:34:59;;;;;;;;;3.00;3.00;;;;;17.73;46.17;99972.81;5073238;28;47063;-73
2023/03/17 12:37:27;;;;;;;;;3.00;3.00;;;;;17.72;46.23;99971.16;5073610;28;45571;-73
2023/03/17 12:40:13;;;;;;;;;3.00;2.75;;;;;17.79;46.27;99969.50;5073450;28;45693;-74
2023/03/17 12:46:37;;;;;;;;;4.00;3.00;;;;;17.86;46.35;99983.72;5073227;28;45740;-74
2023/03/17 12:49:28;;;;;;;;;4.25;2.75;;;;;17.85;46.71;99977.59;5072979;28;45760;-74
2023/03/17 12:52:01;;;;;;;;;4.75;4.00;;;;;17.87;46.76;99991.47;5062795;28;45713;-75
2023/03/17 12:54:30;;;;;;;;;4.00;4.00;;;;;17.83;46.62;99978.75;5053166;28;46343;-72
2023/03/17 12:57:04;;;;;;;;;3.25;3.00;;;;;17.84;46.82;99981.22;5052086;28;46570;-73
2023/03/17 13:03:08;;;;;;;;;6.00;5.00;;;;;17.83;47.22;99978.75;5052848;28;45767;-73
2023/03/17 13:05:36;;;;;;;;;6.25;5.50;;;;;17.84;47.30;99975.09;5034753;28;46386;-73
2023/03/17 13:08:05;;;;;;;;;5.00;5.00;;;;;17.82;47.02;99962.00;5053097;28;46011;-73
2023/03/17 13:10:36;;;;;;;;;6.00;4.00;;;;;17.89;47.45;99967.47;5053019;28;45626;-75